Terminal Aerodrome Forecast
Issued by NWS Huntsville, AL

Home | Current Version | Previous Version | Text Only | Print | Product List | Glossary On
Versions: 1 2 3 4 5 6 7 8 9 10 11 12 13 14 15 16 17 18 19 20 21 22 23 24 25 26
000
FTUS44 KHUN 200526
TAFMSL
TAF
KMSL 200526Z 2006/2106 00000KT P6SM FEW080
      TEMPO 2010/2014 3SM BR SCT020
     FM201400 15005KT P6SM FEW030
     FM201900 14010KT P6SM SCT040
     FM210000 VRB03KT P6SM SKC=

USA.gov is the U.S. government's official web portal to all federal, state and local government web resources and services.